Time;durP1;ratioP1;P1;durP2;ratioP2;P2;SDS_P1;SDS_P2;PMS_P1;PMS_P2;Temp;Humidity;BMP_temperature;BMP_pressure;BME280_temperature;BME280_humidity;BME280_pressure;Samples;Min_cycle;Max_cycle;Signal;HPM_P1;HPM_P2
2021/11/10 00:02:00;;;;;;;1.45;0.90;;;;;;;12.74;73.13;101061.88;4934157;29;20385;-70
2021/11/10 00:04:26;;;;;;;1.02;0.57;;;;;;;12.77;73.32;101062.44;4950411;29;20039;-72
2021/11/10 00:06:52;;;;;;;1.20;0.52;;;;;;;12.85;73.28;101073.75;4917954;28;20059;-72
2021/11/10 00:09:18;;;;;;;1.40;0.40;;;;;;;12.84;73.70;101074.00;4952336;28;20063;-72
2021/11/10 00:11:44;;;;;;;0.57;0.50;;;;;;;12.87;73.62;101073.47;4933753;29;20062;-71
2021/11/10 00:14:10;;;;;;;1.70;0.50;;;;;;;12.90;73.12;101078.44;4951673;29;20398;-71
2021/11/10 00:16:43;;;;;;;1.92;0.60;;;;;;;12.87;73.28;101073.47;4948145;28;20038;-71
2021/11/10 00:19:09;;;;;;;1.75;0.50;;;;;;;12.85;73.25;101064.66;4928845;28;20457;-71
2021/11/10 00:21:35;;;;;;;1.63;0.57;;;;;;;12.93;73.19;101075.16;4931310;28;20042;-73
2021/11/10 00:24:00;;;;;;;1.00;0.80;;;;;;;12.86;73.22;101060.84;4946727;29;20031;-71
2021/11/10 00:26:25;;;;;;;0.90;0.60;;;;;;;12.91;73.15;101063.63;4948997;28;20031;-71
2021/11/10 00:28:51;;;;;;;0.65;0.52;;;;;;;12.86;73.41;101060.84;4919712;29;20098;-71
2021/11/10 00:31:18;;;;;;;2.15;0.40;;;;;;;12.91;73.20;101064.44;4949886;28;20031;-72
2021/11/10 00:33:53;;;;;;;0.60;0.40;;;;;;;12.94;73.40;101068.59;4948694;29;20118;-71
2021/11/10 00:36:19;;;;;;;2.08;0.73;;;;;;;12.87;73.63;101054.25;4949607;28;20094;-73
2021/11/10 00:38:44;;;;;;;0.73;0.60;;;;;;;12.95;73.27;101072.97;4951360;28;20640;-72
2021/11/10 00:41:10;;;;;;;0.52;0.52;;;;;;;12.95;73.18;101058.41;4932673;29;20039;-71
2021/11/10 00:43:36;;;;;;;0.68;0.50;;;;;;;12.93;73.68;101053.19;4932792;29;20034;-72
2021/11/10 00:46:01;;;;;;;3.78;0.82;;;;;;;12.88;73.20;101048.50;4948413;29;20023;-73
2021/11/10 00:48:27;;;;;;;2.03;0.60;;;;;;;12.91;73.87;101058.13;4928645;29;20098;-72
2021/11/10 00:50:53;;;;;;;1.30;0.70;;;;;;;12.83;73.69;101039.41;4951431;28;20035;-72
2021/11/10 00:53:18;;;;;;;0.60;0.60;;;;;;;12.86;73.44;101038.88;4955840;28;20141;-71
2021/11/10 00:55:44;;;;;;;1.02;0.50;;;;;;;12.90;73.02;101040.00;4954152;28;20031;-72
2021/11/10 00:58:10;;;;;;;0.30;0.30;;;;;;;12.91;73.83;101041.66;4928794;28;20031;-73
2021/11/10 01:00:36;;;;;;;0.88;0.68;;;;;;;12.92;73.53;101044.16;4934418;29;20171;-72
2021/11/10 01:03:03;;;;;;;0.38;0.38;;;;;;;12.93;73.84;101042.22;4949891;28;20035;-72
2021/11/10 01:05:30;;;;;;;2.20;0.77;;;;;;;12.95;73.08;101036.47;4948846;28;20043;-70
2021/11/10 01:07:56;;;;;;;1.65;0.80;;;;;;;12.94;73.73;101030.16;4918295;28;20039;-71
2021/11/10 01:10:23;;;;;;;0.47;0.47;;;;;;;12.94;73.69;101030.16;4952360;28;20027;-71
2021/11/10 01:12:50;;;;;;;1.48;0.85;;;;;;;12.93;73.56;101032.03;4950359;28;20019;-72
2021/11/10 01:15:16;;;;;;;1.15;1.15;;;;;;;12.90;73.31;101026.28;4936337;29;20138;-71
2021/11/10 01:17:42;;;;;;;7.10;1.27;;;;;;;12.93;73.92;101028.50;4947650;28;20035;-71
2021/11/10 01:20:10;;;;;;;2.00;0.88;;;;;;;12.88;73.56;101020.25;4930729;29;20029;-72
2021/11/10 01:22:35;;;;;;;0.88;0.80;;;;;;;12.88;74.01;101020.25;4929055;29;20039;-71
2021/11/10 01:25:02;;;;;;;1.60;0.90;;;;;;;12.86;73.76;101005.94;4928200;29;20378;-72
2021/11/10 01:27:27;;;;;;;1.92;0.70;;;;;;;12.85;74.18;101004.28;4938648;28;20031;-72
2021/11/10 01:29:57;;;;;;;0.70;0.70;;;;;;;12.78;73.97;100992.75;4926594;29;20495;-72
2021/11/10 01:32:30;;;;;;;1.58;0.60;;;;;;;12.78;73.93;100990.00;4945218;28;20035;-72
2021/11/10 01:34:56;;;;;;;0.32;0.30;;;;;;;12.77;74.24;100991.91;4910097;29;20067;-73
2021/11/10 01:37:24;;;;;;;0.55;0.25;;;;;;;12.82;73.82;100985.59;4925682;29;20067;-73
2021/11/10 01:39:50;;;;;;;0.50;0.50;;;;;;;12.89;74.53;100995.28;4931244;29;20038;-73
2021/11/10 01:42:16;;;;;;;3.33;0.60;;;;;;;12.88;73.76;100985.38;4933282;29;20028;-72
2021/11/10 01:44:41;;;;;;;1.02;0.57;;;;;;;12.82;74.15;100971.88;4931978;29;20533;-73
2021/11/10 01:47:10;;;;;;;0.60;0.50;;;;;;;12.91;74.40;100975.78;4921104;28;20042;-73
2021/11/10 01:49:37;;;;;;;0.35;0.22;;;;;;;12.91;73.62;100978.53;4953639;28;20034;-72
2021/11/10 01:52:04;;;;;;;0.45;0.20;;;;;;;12.96;73.72;100984.03;4938099;28;20075;-78
2021/11/10 01:54:32;;;;;;;0.20;0.20;;;;;;;12.96;73.81;100981.28;4954259;28;20043;-77
2021/11/10 01:56:58;;;;;;;0.40;0.30;;;;;;;12.91;73.79;100975.78;4953079;28;20039;-78
2021/11/10 01:59:34;;;;;;;0.30;0.25;;;;;;;12.96;73.65;100984.03;4953267;28;20033;-77
2021/11/10 02:02:04;;;;;;;0.35;0.35;;;;;;;12.93;73.77;100984.56;4952069;28;20110;-79
2021/11/10 02:04:35;;;;;;;0.70;0.50;;;;;;;12.91;73.70;100986.78;4950846;28;20090;-78
2021/11/10 02:07:00;;;;;;;1.30;0.20;;;;;;;12.79;73.90;100967.78;4951300;28;20110;-78
2021/11/10 02:09:27;;;;;;;0.57;0.50;;;;;;;12.89;73.56;100986.19;4935706;29;20035;-79
2021/11/10 02:11:55;;;;;;;2.75;0.40;;;;;;;12.85;73.64;100976.84;4954177;28;20118;-78
2021/11/10 02:14:23;;;;;;;0.73;0.50;;;;;;;12.84;74.13;100987.00;4958346;28;20495;-78
2021/11/10 02:16:50;;;;;;;0.57;0.50;;;;;;;12.82;74.04;100975.47;4957315;28;20043;-78
2021/11/10 02:19:17;;;;;;;0.20;0.20;;;;;;;12.80;73.88;100979.56;4938454;29;20069;-77
2021/11/10 02:21:47;;;;;;;2.10;0.40;;;;;;;12.80;73.79;100985.06;4908451;28;20473;-79
2021/11/10 02:24:13;;;;;;;0.50;0.30;;;;;;;12.83;74.00;100990.00;4941702;29;20390;-77
2021/11/10 02:26:41;;;;;;;1.25;0.50;;;;;;;12.84;74.01;100986.19;4955297;29;20031;-78
2021/11/10 02:29:08;;;;;;;0.38;0.10;;;;;;;12.86;73.59;100986.72;4946168;28;20075;-78
2021/11/10 02:31:34;;;;;;;1.70;0.30;;;;;;;12.90;74.09;100985.09;4950499;29;20023;-77
2021/11/10 02:34:01;;;;;;;0.50;0.30;;;;;;;12.89;73.49;100991.69;4937193;29;20030;-77
2021/11/10 02:36:27;;;;;;;3.03;0.70;;;;;;;12.88;73.74;100990.88;4919312;29;20119;-76
2021/11/10 02:38:53;;;;;;;0.30;0.30;;;;;;;12.95;74.13;100987.03;4934630;29;20035;-75
2021/11/10 02:41:18;;;;;;;0.98;0.30;;;;;;;12.97;73.39;100985.69;4954204;28;20027;-76
2021/11/10 02:43:44;;;;;;;0.43;0.40;;;;;;;12.99;73.67;100977.19;4957170;28;20042;-78
2021/11/10 02:46:09;;;;;;;0.28;0.28;;;;;;;13.00;73.84;100982.41;4926527;29;20063;-77
2021/11/10 02:48:35;;;;;;;0.45;0.32;;;;;;;12.97;73.62;100980.19;4933707;28;20024;-76
2021/11/10 02:51:01;;;;;;;0.68;0.30;;;;;;;12.98;73.36;100987.34;4923698;28;20019;-77
2021/11/10 02:53:31;;;;;;;0.40;0.40;;;;;;;12.97;74.12;100985.69;4942928;28;20106;-77
2021/11/10 02:55:59;;;;;;;0.70;0.38;;;;;;;12.92;73.62;100971.94;4949591;28;20114;-77
2021/11/10 02:58:30;;;;;;;0.52;0.40;;;;;;;12.92;74.13;100977.41;4961650;28;20027;-77
2021/11/10 03:00:56;;;;;;;0.70;0.40;;;;;;;12.86;74.43;100960.09;4946639;29;20377;-77
2021/11/10 03:03:22;;;;;;;1.92;0.40;;;;;;;12.91;74.26;100970.31;4928791;29;20030;-77
2021/11/10 03:05:48;;;;;;;0.80;0.20;;;;;;;12.92;74.37;100972.78;4935140;29;20055;-74
2021/11/10 03:08:18;;;;;;;0.30;0.20;;;;;;;12.93;74.48;100968.09;4949288;28;20038;-72
2021/11/10 03:10:43;;;;;;;0.40;0.20;;;;;;;12.90;74.44;100966.72;4932988;29;20027;-72
2021/11/10 03:13:09;;;;;;;0.38;0.20;;;;;;;12.93;74.23;100974.41;4951683;28;20113;-72
2021/11/10 03:15:39;;;;;;;1.13;0.40;;;;;;;12.97;74.93;100968.41;4946493;29;20027;-73
2021/11/10 03:18:05;;;;;;;0.40;0.20;;;;;;;12.97;75.09;100969.22;4952535;28;20077;-73
2021/11/10 03:20:31;;;;;;;0.20;0.20;;;;;;;12.98;74.84;100972.78;4950834;28;20027;-73
2021/11/10 03:22:56;;;;;;;0.75;0.40;;;;;;;12.99;75.00;100978.00;4953221;28;20445;-73
2021/11/10 03:25:22;;;;;;;0.57;0.40;;;;;;;13.04;74.96;100971.69;4948409;28;20042;-73
2021/11/10 03:27:48;;;;;;;2.47;0.60;;;;;;;13.04;75.03;100972.53;4909742;28;20031;-73
2021/11/10 03:30:18;;;;;;;1.10;0.43;;;;;;;12.99;75.32;100960.72;4953496;29;20023;-73
2021/11/10 03:32:45;;;;;;;1.75;0.15;;;;;;;13.08;74.92;100970.91;4950890;28;21315;-73
2021/11/10 03:35:14;;;;;;;0.68;0.20;;;;;;;13.06;75.19;100961.28;4937132;29;20458;-74
2021/11/10 03:37:41;;;;;;;0.17;0.17;;;;;;;13.18;74.73;100974.78;4952822;28;20035;-75
2021/11/10 03:40:11;;;;;;;0.20;0.10;;;;;;;13.16;74.82;100960.50;4953198;28;20102;-72
2021/11/10 03:42:37;;;;;;;0.15;0.10;;;;;;;13.13;75.10;100953.63;4936143;28;20031;-74
2021/11/10 03:45:07;;;;;;;0.32;0.32;;;;;;;13.17;75.25;100951.16;4953533;28;20102;-74
2021/11/10 03:47:43;;;;;;;;;;;;;;;;;;;;;
2021/11/10 03:50:11;;;;;;;0.43;0.10;;;;;;;13.32;74.84;100975.91;4964575;29;20122;-72
2021/11/10 03:52:36;;;;;;;1.08;0.38;;;;;;;13.25;74.60;100962.44;4964352;28;20083;-72
2021/11/10 03:55:03;;;;;;;0.45;0.25;;;;;;;13.32;74.96;100975.09;4960108;28;20034;-73
2021/11/10 03:57:28;;;;;;;0.80;0.38;;;;;;;13.33;74.70;100969.34;4955897;29;20035;-72
2021/11/10 03:59:54;;;;;;;0.15;0.15;;;;;;;13.33;74.84;100974.81;4934785;28;20034;-71
2021/11/10 04:02:19;;;;;;;0.20;0.20;;;;;;;13.33;75.14;100974.81;4953271;29;20477;-71
2021/11/10 04:04:45;;;;;;;0.63;0.40;;;;;;;13.29;74.84;100970.97;4950064;28;20027;-73
2021/11/10 04:07:10;;;;;;;0.30;0.20;;;;;;;13.31;74.78;100971.50;4946470;28;20046;-73
2021/11/10 04:09:36;;;;;;;0.63;0.30;;;;;;;13.30;74.84;100983.59;4941140;28;20046;-72
2021/11/10 04:12:02;;;;;;;0.43;0.40;;;;;;;13.26;75.64;100993.50;4955305;28;20139;-71
2021/11/10 04:14:27;;;;;;;5.28;1.10;;;;;;;13.20;75.54;100989.03;4950319;28;20378;-74
2021/11/10 04:16:53;;;;;;;0.90;0.35;;;;;;;13.17;75.28;100984.09;4952083;29;20038;-72
2021/11/10 04:19:18;;;;;;;0.32;0.32;;;;;;;13.16;75.86;100994.28;4934271;29;20064;-72
2021/11/10 04:21:44;;;;;;;0.52;0.52;;;;;;;13.08;76.26;100992.88;4945919;28;20046;-72
2021/11/10 04:24:09;;;;;;;2.47;0.63;;;;;;;12.96;76.47;100981.28;4936096;29;20038;-73
2021/11/10 04:26:38;;;;;;;2.90;0.40;;;;;;;13.01;76.34;100994.19;4933670;29;20598;-71
2021/11/10 04:29:06;;;;;;;0.28;0.20;;;;;;;12.90;77.24;100996.09;4945784;28;20043;-72
2021/11/10 04:31:32;;;;;;;0.50;0.50;;;;;;;12.86;77.25;100997.72;4918581;28;20030;-72
2021/11/10 04:33:58;;;;;;;0.50;0.50;;;;;;;12.81;77.93;101003.19;4931346;29;20043;-71
2021/11/10 04:36:25;;;;;;;0.60;0.50;;;;;;;12.79;77.87;101008.09;4932234;29;20472;-72
2021/11/10 04:38:52;;;;;;;1.10;0.50;;;;;;;12.73;78.17;101008.09;4947914;28;20027;-72
2021/11/10 04:41:20;;;;;;;0.55;0.50;;;;;;;12.62;78.48;100997.31;4950122;28;20037;-72
2021/11/10 04:43:48;;;;;;;0.50;0.50;;;;;;;12.67;79.49;101009.13;4932592;29;20113;-72
2021/11/10 04:46:26;;;;;;;0.85;0.50;;;;;;;12.61;79.27;101010.19;4946663;29;20027;-72
2021/11/10 04:48:51;;;;;;;0.30;0.30;;;;;;;12.61;79.27;101009.38;4931941;28;20039;-70
2021/11/10 04:51:18;;;;;;;0.43;0.40;;;;;;;12.55;79.96;101006.59;4946425;28;20053;-70
2021/11/10 04:53:47;;;;;;;0.40;0.40;;;;;;;12.52;79.82;101003.56;4932936;28;20039;-70
2021/11/10 04:56:13;;;;;;;0.70;0.47;;;;;;;12.48;80.69;101007.94;4948014;28;20027;-71
2021/11/10 04:58:38;;;;;;;0.50;0.32;;;;;;;12.45;81.00;101005.72;4953573;28;20045;-71
2021/11/10 05:01:26;;;;;;;0.70;0.20;;;;;;;12.47;80.55;101006.28;4943758;29;20031;-71
2021/11/10 05:03:58;;;;;;;0.32;0.32;;;;;;;12.38;80.51;101004.03;4963315;28;20465;-77
2021/11/10 05:06:24;;;;;;;0.43;0.30;;;;;;;12.47;80.82;101017.25;4951002;28;20059;-73
2021/11/10 05:08:50;;;;;;;2.25;0.70;;;;;;;12.46;80.98;101016.44;4937921;29;20031;-73
2021/11/10 05:11:16;;;;;;;0.40;0.40;;;;;;;12.45;80.64;101016.69;4945343;28;20027;-73
2021/11/10 05:13:42;;;;;;;1.88;0.38;;;;;;;12.48;80.92;101016.16;4933138;29;20494;-73
2021/11/10 05:16:07;;;;;;;0.50;0.43;;;;;;;12.46;81.13;101023.84;4956554;28;20027;-73
2021/11/10 05:18:33;;;;;;;0.70;0.60;;;;;;;12.47;81.20;101019.97;4935381;28;20361;-72
2021/11/10 05:20:58;;;;;;;2.60;0.55;;;;;;;12.50;80.91;101017.56;4915405;29;20046;-73
2021/11/10 05:23:24;;;;;;;1.13;0.50;;;;;;;12.49;81.14;101023.31;4951223;28;20031;-72
2021/11/10 05:25:51;;;;;;;0.70;0.50;;;;;;;12.53;81.40;101013.47;4925560;29;20038;-73
2021/11/10 05:28:16;;;;;;;1.00;0.57;;;;;;;12.52;80.87;101015.38;4929452;28;20027;-72
2021/11/10 05:30:46;;;;;;;0.30;0.30;;;;;;;12.47;81.27;101003.53;4950665;28;20619;-72
2021/11/10 05:33:13;;;;;;;1.38;0.52;;;;;;;12.53;81.54;101017.03;4928955;28;20034;-72
2021/11/10 05:35:39;;;;;;;2.92;0.50;;;;;;;12.55;81.04;101012.09;4951505;28;20058;-72
2021/11/10 05:38:04;;;;;;;0.70;0.50;;;;;;;12.54;81.25;101010.47;4950524;28;20086;-72
2021/11/10 05:40:32;;;;;;;0.43;0.43;;;;;;;12.57;80.88;101014.56;4946034;28;20106;-72
2021/11/10 05:42:58;;;;;;;0.38;0.35;;;;;;;12.63;81.38;101010.78;4934214;28;20083;-72
2021/11/10 05:45:23;;;;;;;0.50;0.40;;;;;;;12.65;80.95;101016.81;4949084;28;20054;-72
2021/11/10 05:47:49;;;;;;;0.32;0.32;;;;;;;12.70;81.01;101016.88;4951091;28;20389;-71
2021/11/10 05:50:14;;;;;;;1.05;0.32;;;;;;;12.71;80.97;101007.50;4935348;29;20033;-72
2021/11/10 05:52:42;;;;;;;0.20;0.20;;;;;;;12.80;81.12;101012.50;4947510;28;20023;-71
2021/11/10 05:55:08;;;;;;;0.35;0.20;;;;;;;12.83;81.05;101009.22;4952029;28;20086;-72
2021/11/10 05:57:37;;;;;;;0.60;0.30;;;;;;;12.85;80.78;101004.28;4957338;28;20047;-71
2021/11/10 06:00:05;;;;;;;0.75;0.22;;;;;;;12.88;80.63;101012.00;4956956;28;20381;-72
2021/11/10 06:02:30;;;;;;;2.35;0.20;;;;;;;12.91;80.33;101014.22;4939786;28;20034;-71
2021/11/10 06:04:56;;;;;;;0.20;0.20;;;;;;;12.89;80.74;101017.22;4956483;28;20441;-72
2021/11/10 06:07:21;;;;;;;0.47;0.35;;;;;;;12.89;80.09;101016.38;4955159;28;20046;-71
2021/11/10 06:09:51;;;;;;;0.43;0.40;;;;;;;12.83;80.25;101012.78;4947780;28;20035;-72
2021/11/10 06:12:17;;;;;;;0.20;0.20;;;;;;;12.79;80.21;101013.59;4941126;29;20058;-71
2021/11/10 06:14:43;;;;;;;0.30;0.28;;;;;;;12.86;80.13;101016.91;4931102;28;20063;-72
2021/11/10 06:17:09;;;;;;;0.32;0.32;;;;;;;12.85;80.51;101020.75;4935249;29;20054;-72
2021/11/10 06:19:34;;;;;;;0.20;0.20;;;;;;;12.84;80.44;101021.88;4935576;29;20482;-71
2021/11/10 06:22:00;;;;;;;0.30;0.30;;;;;;;12.87;80.72;101024.06;4932409;29;20032;-72
2021/11/10 06:24:26;;;;;;;0.43;0.30;;;;;;;12.86;80.73;101025.16;4953728;28;20040;-72
2021/11/10 06:26:51;;;;;;;0.40;0.40;;;;;;;12.84;80.43;101028.16;4950453;28;20062;-72
2021/11/10 06:29:17;;;;;;;1.00;0.45;;;;;;;12.87;80.50;101024.06;4932811;29;20031;-72
2021/11/10 06:31:43;;;;;;;0.30;0.30;;;;;;;12.85;80.69;101016.09;4934064;28;20031;-72
2021/11/10 06:34:08;;;;;;;0.45;0.28;;;;;;;12.86;80.78;101017.75;4939017;29;20035;-72
2021/11/10 06:36:34;;;;;;;0.25;0.25;;;;;;;12.88;80.75;101018.31;4936006;29;20090;-72
2021/11/10 06:38:59;;;;;;;0.30;0.30;;;;;;;12.87;80.56;101021.31;4953922;28;20027;-72
2021/11/10 06:41:25;;;;;;;0.57;0.57;;;;;;;12.87;80.14;101013.91;4953197;28;20034;-72
2021/11/10 06:43:51;;;;;;;0.30;0.30;;;;;;;12.86;80.34;101014.19;4931854;28;20773;-74
2021/11/10 06:46:17;;;;;;;1.63;0.30;;;;;;;12.88;80.17;101023.00;4935160;29;20033;-74
2021/11/10 06:48:43;;;;;;;0.10;0.10;;;;;;;12.91;80.89;101030.69;4916316;29;20293;-73
2021/11/10 06:51:08;;;;;;;0.43;0.32;;;;;;;12.91;80.67;101030.69;4933123;29;20034;-73
2021/11/10 06:53:35;;;;;;;0.40;0.40;;;;;;;12.94;80.72;101030.16;4949701;29;20119;-72
2021/11/10 06:56:02;;;;;;;0.10;0.10;;;;;;;12.98;80.03;101031.28;4949514;28;20430;-72
2021/11/10 06:58:27;;;;;;;0.20;0.20;;;;;;;12.95;80.46;101026.28;4958159;28;20035;-72
2021/11/10 07:00:53;;;;;;;0.20;0.20;;;;;;;12.98;80.27;101014.81;4956789;28;20035;-73
2021/11/10 07:03:19;;;;;;;0.60;0.20;;;;;;;12.95;80.08;101018.06;4957248;28;20489;-72
2021/11/10 07:05:44;;;;;;;0.10;0.10;;;;;;;12.98;80.24;101025.78;4937663;28;20055;-73
2021/11/10 07:08:10;;;;;;;0.38;0.20;;;;;;;13.02;80.30;101028.81;4936042;28;20046;-73
2021/11/10 07:10:35;;;;;;;0.15;0.15;;;;;;;13.01;80.12;101036.22;4934972;29;20122;-73
2021/11/10 07:13:01;;;;;;;0.20;0.20;;;;;;;12.99;80.14;101030.16;4918445;28;20461;-73
2021/11/10 07:15:26;;;;;;;0.38;0.22;;;;;;;12.97;79.77;101028.81;4951565;28;20031;-72
2021/11/10 07:17:55;;;;;;;0.13;0.13;;;;;;;12.99;80.47;101038.41;4956546;28;20031;-73
2021/11/10 07:20:21;;;;;;;0.10;0.10;;;;;;;12.96;80.08;101041.69;4950353;28;20113;-74
2021/11/10 07:22:47;;;;;;;0.20;0.20;;;;;;;13.00;79.76;101040.06;4952179;28;20042;-74
2021/11/10 07:25:13;;;;;;;0.10;0.10;;;;;;;12.99;80.12;101049.38;4953833;28;20027;-71
2021/11/10 07:27:39;;;;;;;0.10;0.10;;;;;;;13.01;80.54;101047.22;4932755;29;20035;-73
2021/11/10 07:30:08;;;;;;;0.65;0.17;;;;;;;13.00;80.22;101044.72;4946517;28;20039;-72
2021/11/10 07:32:35;;;;;;;0.40;0.30;;;;;;;12.98;80.54;101053.22;4941647;28;20023;-71
2021/11/10 07:35:02;;;;;;;0.25;0.20;;;;;;;12.97;80.29;101057.06;4940382;28;20022;-71
2021/11/10 07:37:27;;;;;;;0.20;0.10;;;;;;;12.99;80.78;101060.34;4951735;29;20110;-72
2021/11/10 07:39:53;;;;;;;0.20;0.20;;;;;;;13.00;80.71;101062.03;4953234;28;20451;-73
2021/11/10 07:42:19;;;;;;;0.20;0.10;;;;;;;12.98;80.42;101058.72;4950383;29;20038;-74
2021/11/10 07:44:57;;;;;;;;;;;;;;;;;;;;;
2021/11/10 07:47:27;;;;;;;0.20;0.10;;;;;;;13.05;80.36;101069.44;4961387;28;20107;-72
2021/11/10 07:49:53;;;;;;;0.20;0.20;;;;;;;13.08;80.06;101075.25;4959038;28;20082;-72
2021/11/10 07:52:19;;;;;;;0.17;0.17;;;;;;;13.10;80.17;101073.06;4955613;28;20429;-71
2021/11/10 07:54:44;;;;;;;0.13;0.10;;;;;;;13.13;80.25;101082.69;4917238;29;20059;-72
2021/11/10 07:57:10;;;;;;;0.10;0.10;;;;;;;13.15;80.63;101090.66;4952583;28;20636;-75
2021/11/10 07:59:35;;;;;;;0.17;0.08;;;;;;;13.16;80.44;101075.84;4935199;28;20149;-74
2021/11/10 08:02:04;;;;;;;2.88;0.20;;;;;;;13.20;80.10;101075.03;4932559;29;20102;-82
2021/11/10 08:04:31;;;;;;;0.10;0.10;;;;;;;13.30;80.34;101085.22;4935984;29;20042;-82
2021/11/10 08:06:57;;;;;;;0.60;0.10;;;;;;;13.34;80.07;101093.75;4907437;29;20047;-80
2021/11/10 08:09:30;;;;;;;0.10;0.10;;;;;;;13.33;80.55;101092.94;4939399;29;20047;-78
2021/11/10 08:11:55;;;;;;;0.17;0.10;;;;;;;13.42;79.90;101104.28;4949914;28;20063;-79
2021/11/10 08:14:21;;;;;;;0.38;0.10;;;;;;;13.52;79.80;101118.06;4938348;29;20393;-77
2021/11/10 08:16:54;;;;;;;0.10;0.10;;;;;;;13.56;79.95;101118.31;4936646;29;20039;-83
2021/11/10 08:19:20;;;;;;;0.20;0.20;;;;;;;13.66;79.93;101129.34;4918020;28;20027;-77
2021/11/10 08:21:45;;;;;;;0.10;0.10;;;;;;;13.73;79.26;101134.59;4931554;29;20471;-76
2021/11/10 08:24:11;;;;;;;0.28;0.28;;;;;;;13.74;79.74;101130.75;4941630;29;20075;-74
2021/11/10 08:26:39;;;;;;;2.40;0.40;;;;;;;13.75;79.04;101132.41;4933757;29;20031;-79
2021/11/10 08:29:05;;;;;;;0.10;0.10;;;;;;;13.75;79.05;101137.91;4933111;28;20035;-79
2021/11/10 08:31:30;;;;;;;0.20;0.20;;;;;;;13.76;79.48;101137.63;4952629;28;20034;-78
2021/11/10 08:33:57;;;;;;;0.30;0.20;;;;;;;13.73;79.02;101135.41;4950447;28;20023;-78
2021/11/10 08:36:22;;;;;;;0.40;0.40;;;;;;;13.74;78.91;101142.59;4934306;29;20031;-78
2021/11/10 08:38:48;;;;;;;0.20;0.20;;;;;;;13.74;78.80;101153.56;4934148;28;20414;-78
2021/11/10 08:41:23;;;;;;;0.20;0.20;;;;;;;13.76;79.34;101156.06;4936898;28;20082;-78
2021/11/10 08:43:49;;;;;;;0.40;0.30;;;;;;;13.76;79.44;101150.56;4936213;29;20049;-81
2021/11/10 08:46:16;;;;;;;1.85;0.60;;;;;;;13.77;79.22;101136.53;4930999;29;20470;-79
2021/11/10 08:48:41;;;;;;;0.80;0.80;;;;;;;13.74;78.68;101152.72;4956372;28;20023;-79
2021/11/10 08:51:07;;;;;;;2.03;1.23;;;;;;;13.63;79.06;101151.88;4958380;28;20027;-81
2021/11/10 08:53:34;;;;;;;1.35;1.35;;;;;;;13.60;79.38;101155.16;4922117;29;20058;-80
2021/11/10 08:56:01;;;;;;;1.70;1.60;;;;;;;13.58;79.61;101149.09;4956635;28;20027;-79
2021/11/10 08:58:27;;;;;;;2.20;1.50;;;;;;;13.60;79.69;101145.00;4929410;28;20038;-79
2021/11/10 09:00:54;;;;;;;1.85;1.70;;;;;;;13.63;79.93;101140.88;4963299;29;20086;-79
2021/11/10 09:03:21;;;;;;;1.73;1.63;;;;;;;13.66;79.43;101134.84;4941729;28;20049;-79
2021/11/10 09:05:50;;;;;;;1.35;1.33;;;;;;;13.70;79.47;101127.72;4943846;28;20035;-80
2021/11/10 09:08:18;;;;;;;1.60;1.60;;;;;;;13.76;79.33;101123.88;4936178;29;20429;-81
2021/11/10 09:10:44;;;;;;;1.35;1.35;;;;;;;13.85;79.65;101131.63;4913173;29;20492;-81
2021/11/10 09:13:10;;;;;;;1.00;1.00;;;;;;;13.84;79.26;101135.44;4912227;29;20051;-79
2021/11/10 09:15:36;;;;;;;0.93;0.93;;;;;;;13.89;79.59;101138.22;4933802;29;20035;-80
2021/11/10 09:18:05;;;;;;;1.55;1.45;;;;;;;13.89;79.43;101132.72;4933555;29;20782;-79
2021/11/10 09:20:32;;;;;;;0.90;0.90;;;;;;;13.93;79.46;101139.31;4933745;29;20019;-79
2021/11/10 09:22:59;;;;;;;1.08;1.08;;;;;;;13.93;79.49;101151.16;4934316;29;20062;-80
2021/11/10 09:25:27;;;;;;;0.70;0.70;;;;;;;13.95;79.14;101139.88;4916583;29;20043;-80
2021/11/10 09:27:54;;;;;;;0.82;0.82;;;;;;;14.03;79.24;101138.53;4924954;29;20031;-80
2021/11/10 09:30:21;;;;;;;0.68;0.68;;;;;;;14.11;79.00;101141.56;4929916;29;20023;-81
2021/11/10 09:32:49;;;;;;;0.60;0.60;;;;;;;14.17;78.92;101147.09;4932369;29;20028;-80
2021/11/10 09:35:17;;;;;;;0.30;0.30;;;;;;;14.23;78.74;101140.50;4931055;29;20016;-81
2021/11/10 09:37:43;;;;;;;0.40;0.40;;;;;;;14.17;78.72;101128.66;4917577;29;20367;-80
2021/11/10 09:40:12;;;;;;;0.45;0.45;;;;;;;14.20;78.61;101138.28;4917886;29;20059;-80
2021/11/10 09:42:38;;;;;;;0.22;0.20;;;;;;;14.30;78.71;101143.78;4916436;29;20107;-81
2021/11/10 09:45:06;;;;;;;0.57;0.57;;;;;;;14.35;78.42;101143.78;4927113;29;20121;-80
2021/11/10 09:47:34;;;;;;;0.20;0.20;;;;;;;14.39;78.03;101147.66;4908217;29;20501;-81
2021/11/10 09:50:00;;;;;;;0.22;0.22;;;;;;;14.45;78.14;101146.53;4936631;29;20024;-80
2021/11/10 09:52:25;;;;;;;0.40;0.32;;;;;;;14.54;78.35;101148.75;4929920;29;20031;-80
2021/11/10 09:54:51;;;;;;;0.30;0.30;;;;;;;14.67;77.96;101142.72;4934001;29;20469;-80
2021/11/10 09:57:17;;;;;;;0.20;0.20;;;;;;;14.75;77.90;101138.63;4920435;29;20034;-79
2021/11/10 09:59:43;;;;;;;0.30;0.30;;;;;;;14.89;77.72;101138.84;4939150;29;20779;-79
2021/11/10 10:02:13;;;;;;;0.20;0.20;;;;;;;15.07;77.46;101132.78;4938004;29;20059;-78
2021/11/10 10:04:44;;;;;;;0.20;0.20;;;;;;;15.23;77.25;101127.19;4945328;29;20108;-79
2021/11/10 10:07:10;;;;;;;0.28;0.28;;;;;;;15.38;76.93;101135.44;4958302;29;20063;-79
2021/11/10 10:09:37;;;;;;;0.20;0.20;;;;;;;15.33;76.06;101128.00;4938043;29;20502;-78
2021/11/10 10:12:04;;;;;;;0.25;0.25;;;;;;;15.32;76.01;101131.06;4929118;29;20162;-79
2021/11/10 10:14:32;;;;;;;0.30;0.30;;;;;;;15.33;76.20;101138.19;4953397;29;20516;-80
2021/11/10 10:16:57;;;;;;;0.17;0.17;;;;;;;15.31;76.19;101140.41;4945964;28;20027;-80
2021/11/10 10:19:37;;;;;;;0.30;0.30;;;;;;;15.31;75.82;101146.75;4936704;29;20053;-81
2021/11/10 10:22:02;;;;;;;0.52;0.40;;;;;;;15.27;75.82;101142.06;4930288;29;20035;-80
2021/11/10 10:24:28;;;;;;;0.40;0.40;;;;;;;15.27;75.46;101137.38;4953719;28;20031;-81
2021/11/10 10:26:53;;;;;;;0.40;0.30;;;;;;;15.25;75.58;101136.03;4900708;29;20038;-80
2021/11/10 10:29:19;;;;;;;0.17;0.17;;;;;;;15.23;75.63;101154.75;4950191;28;20028;-80
2021/11/10 10:31:46;;;;;;;0.40;0.30;;;;;;;15.23;75.63;101154.75;4955067;28;20030;-80
2021/11/10 10:34:14;;;;;;;0.55;0.20;;;;;;;15.24;76.01;101145.41;4954177;29;20393;-81
2021/11/10 10:36:43;;;;;;;0.30;0.30;;;;;;;15.32;75.86;101147.59;4936113;28;20038;-80
2021/11/10 10:39:17;;;;;;;0.10;0.10;;;;;;;15.41;75.94;101145.88;4953626;29;20102;-81
2021/11/10 10:41:45;;;;;;;0.30;0.22;;;;;;;15.46;75.54;101145.88;4954298;28;20031;-79
2021/11/10 10:44:16;;;;;;;0.20;0.20;;;;;;;15.58;75.54;101139.19;4951788;28;20026;-79
2021/11/10 10:46:45;;;;;;;0.20;0.20;;;;;;;15.69;75.64;101141.63;4952897;28;20034;-79
2021/11/10 10:49:18;;;;;;;0.00;0.00;;;;;;;15.78;75.15;101133.63;4939046;29;20027;-82
2021/11/10 10:51:47;;;;;;;0.13;0.13;;;;;;;15.93;74.80;101149.28;4953534;29;20090;-80
2021/11/10 10:54:12;;;;;;;0.10;0.10;;;;;;;16.05;74.50;101143.41;4948732;28;20027;-78
2021/11/10 10:56:42;;;;;;;0.10;0.10;;;;;;;16.12;74.72;101138.41;4955141;28;20034;-79
2021/11/10 10:59:12;;;;;;;0.05;0.00;;;;;;;16.22;74.72;101143.84;4927495;29;20038;-80
2021/11/10 11:01:40;;;;;;;0.10;0.00;;;;;;;16.33;73.92;101149.31;4951744;28;20140;-80
2021/11/10 11:04:21;;;;;;;0.00;0.00;;;;;;;16.44;73.84;101139.00;4951963;28;20406;-79
2021/11/10 11:07:01;;;;;;;0.00;0.00;;;;;;;16.43;73.68;101143.69;4949949;28;20106;-79
2021/11/10 11:09:32;;;;;;;0.00;0.00;;;;;;;16.39;73.26;101140.69;4942339;29;20024;-79
2021/11/10 11:14:55;;;;;;;0.00;0.00;;;;;;;16.32;72.90;101131.09;4940898;29;20082;-78
2021/11/10 11:17:25;;;;;;;1.17;0.00;;;;;;;16.27;73.01;101128.38;4936923;29;20107;-79
2021/11/10 11:20:14;;;;;;;0.00;0.00;;;;;;;16.31;73.13;101124.75;4925780;29;20034;-82
2021/11/10 11:22:46;;;;;;;0.00;0.00;;;;;;;16.36;73.04;101127.44;4933820;29;20074;-81
2021/11/10 11:25:14;;;;;;;0.03;0.00;;;;;;;16.30;72.83;101122.28;4925194;29;20081;-79
2021/11/10 11:27:52;;;;;;;0.10;0.00;;;;;;;16.28;73.05;101124.47;4933889;29;20059;-80
2021/11/10 11:30:18;;;;;;;0.00;0.00;;;;;;;16.20;72.57;101129.50;4934592;29;20031;-80